sensor_id;sensor_type;location;lat;lon;timestamp;temperature;humidity
65396;HTU21D;52004;45.136;39.010;2023-03-25T00:01:55;9.16;71.60
65396;HTU21D;52004;45.136;39.010;2023-03-25T00:04:20;9.17;71.66
65396;HTU21D;52004;45.136;39.010;2023-03-25T00:06:46;9.21;71.68
65396;HTU21D;52004;45.136;39.010;2023-03-25T00:09:12;9.25;71.67
65396;HTU21D;52004;45.136;39.010;2023-03-25T00:11:38;9.29;71.62
65396;HTU21D;52004;45.136;39.010;2023-03-25T00:14:04;9.30;71.57
65396;HTU21D;52004;45.136;39.010;2023-03-25T00:16:30;9.31;71.57
65396;HTU21D;52004;45.136;39.010;2023-03-25T00:18:56;9.32;71.53
65396;HTU21D;52004;45.136;39.010;2023-03-25T00:21:24;9.32;71.45
65396;HTU21D;52004;45.136;39.010;2023-03-25T00:23:50;9.29;71.37
65396;HTU21D;52004;45.136;39.010;2023-03-25T00:26:15;9.26;71.37
65396;HTU21D;52004;45.136;39.010;2023-03-25T00:28:42;9.21;71.41
65396;HTU21D;52004;45.136;39.010;2023-03-25T00:31:10;9.17;71.42
65396;HTU21D;52004;45.136;39.010;2023-03-25T00:33:36;9.12;71.41
65396;HTU21D;52004;45.136;39.010;2023-03-25T00:36:02;9.08;71.39
65396;HTU21D;52004;45.136;39.010;2023-03-25T00:38:30;9.04;71.39
65396;HTU21D;52004;45.136;39.010;2023-03-25T00:43:48;8.92;71.45
65396;HTU21D;52004;45.136;39.010;2023-03-25T00:46:15;8.88;71.55
65396;HTU21D;52004;45.136;39.010;2023-03-25T00:48:41;8.86;71.62
65396;HTU21D;52004;45.136;39.010;2023-03-25T00:51:08;8.83;71.68
65396;HTU21D;52004;45.136;39.010;2023-03-25T00:53:35;8.79;71.68
65396;HTU21D;52004;45.136;39.010;2023-03-25T00:56:02;8.77;71.71
65396;HTU21D;52004;45.136;39.010;2023-03-25T00:58:28;8.74;71.73
65396;HTU21D;52004;45.136;39.010;2023-03-25T01:00:54;8.75;71.71
65396;HTU21D;52004;45.136;39.010;2023-03-25T01:03:21;8.71;71.71
65396;HTU21D;52004;45.136;39.010;2023-03-25T01:05:49;8.67;71.72
65396;HTU21D;52004;45.136;39.010;2023-03-25T01:08:15;8.64;71.74
65396;HTU21D;52004;45.136;39.010;2023-03-25T01:10:42;8.62;71.71
65396;HTU21D;52004;45.136;39.010;2023-03-25T01:13:08;8.60;71.68
65396;HTU21D;52004;45.136;39.010;2023-03-25T01:15:34;8.56;71.67
65396;HTU21D;52004;45.136;39.010;2023-03-25T01:18:00;8.53;71.66
65396;HTU21D;52004;45.136;39.010;2023-03-25T01:20:26;8.51;71.67
65396;HTU21D;52004;45.136;39.010;2023-03-25T01:22:52;8.47;71.67
65396;HTU21D;52004;45.136;39.010;2023-03-25T01:25:18;8.44;71.70
65396;HTU21D;52004;45.136;39.010;2023-03-25T01:27:44;8.42;71.70
65396;HTU21D;52004;45.136;39.010;2023-03-25T01:30:11;8.38;71.70
65396;HTU21D;52004;45.136;39.010;2023-03-25T01:32:37;8.34;71.71
65396;HTU21D;52004;45.136;39.010;2023-03-25T01:35:03;8.30;71.76
65396;HTU21D;52004;45.136;39.010;2023-03-25T01:37:30;8.26;71.74
65396;HTU21D;52004;45.136;39.010;2023-03-25T01:39:58;8.19;71.77
65396;HTU21D;52004;45.136;39.010;2023-03-25T01:42:24;8.13;71.85
65396;HTU21D;52004;45.136;39.010;2023-03-25T01:47:16;8.06;72.02
65396;HTU21D;52004;45.136;39.010;2023-03-25T01:49:43;8.07;72.02
65396;HTU21D;52004;45.136;39.010;2023-03-25T01:52:14;8.07;72.00
65396;HTU21D;52004;45.136;39.010;2023-03-25T01:54:41;8.05;71.97
65396;HTU21D;52004;45.136;39.010;2023-03-25T01:57:08;8.03;71.97
65396;HTU21D;52004;45.136;39.010;2023-03-25T01:59:34;8.02;71.97
65396;HTU21D;52004;45.136;39.010;2023-03-25T02:02:01;7.99;71.96
65396;HTU21D;52004;45.136;39.010;2023-03-25T02:04:39;7.97;71.97
65396;HTU21D;52004;45.136;39.010;2023-03-25T02:07:08;7.93;71.96
65396;HTU21D;52004;45.136;39.010;2023-03-25T02:09:36;7.92;71.94
65396;HTU21D;52004;45.136;39.010;2023-03-25T02:12:05;7.87;71.94
65396;HTU21D;52004;45.136;39.010;2023-03-25T02:14:32;7.85;71.97
65396;HTU21D;52004;45.136;39.010;2023-03-25T02:19:37;7.78;72.03
65396;HTU21D;52004;45.136;39.010;2023-03-25T02:38:17;7.58;72.12
65396;HTU21D;52004;45.136;39.010;2023-03-25T02:40:51;7.56;72.12
65396;HTU21D;52004;45.136;39.010;2023-03-25T02:43:22;7.52;72.11
65396;HTU21D;52004;45.136;39.010;2023-03-25T02:45:50;7.49;72.13
65396;HTU21D;52004;45.136;39.010;2023-03-25T02:48:18;7.46;72.10
65396;HTU21D;52004;45.136;39.010;2023-03-25T02:50:47;7.42;72.16
65396;HTU21D;52004;45.136;39.010;2023-03-25T02:53:27;7.38;72.25
65396;HTU21D;52004;45.136;39.010;2023-03-25T02:55:55;7.38;72.30
65396;HTU21D;52004;45.136;39.010;2023-03-25T02:58:23;7.39;72.36
65396;HTU21D;52004;45.136;39.010;2023-03-25T03:00:49;7.41;72.42
65396;HTU21D;52004;45.136;39.010;2023-03-25T03:03:16;7.40;72.42
65396;HTU21D;52004;45.136;39.010;2023-03-25T03:05:47;7.42;72.53
65396;HTU21D;52004;45.136;39.010;2023-03-25T03:13:25;7.50;72.46
65396;HTU21D;52004;45.136;39.010;2023-03-25T03:15:57;7.52;72.39
65396;HTU21D;52004;45.136;39.010;2023-03-25T03:26:24;7.53;72.30
65396;HTU21D;52004;45.136;39.010;2023-03-25T03:28:54;7.50;72.29
65396;HTU21D;52004;45.136;39.010;2023-03-25T03:31:46;7.50;72.39
65396;HTU21D;52004;45.136;39.010;2023-03-25T03:37:05;7.53;72.58
65396;HTU21D;52004;45.136;39.010;2023-03-25T03:39:34;7.57;72.59
65396;HTU21D;52004;45.136;39.010;2023-03-25T03:42:05;7.61;72.61
65396;HTU21D;52004;45.136;39.010;2023-03-25T03:44:33;7.67;72.63
65396;HTU21D;52004;45.136;39.010;2023-03-25T03:47:07;7.72;72.64
65396;HTU21D;52004;45.136;39.010;2023-03-25T03:49:37;7.76;72.63
65396;HTU21D;52004;45.136;39.010;2023-03-25T03:52:14;7.83;72.64
65396;HTU21D;52004;45.136;39.010;2023-03-25T03:54:46;7.90;72.63
65396;HTU21D;52004;45.136;39.010;2023-03-25T03:57:18;7.98;72.64
65396;HTU21D;52004;45.136;39.010;2023-03-25T04:02:37;8.11;72.67
65396;HTU21D;52004;45.136;39.010;2023-03-25T04:05:08;8.18;72.67
65396;HTU21D;52004;45.136;39.010;2023-03-25T04:13:35;8.41;72.70
65396;HTU21D;52004;45.136;39.010;2023-03-25T04:16:02;8.46;72.67
65396;HTU21D;52004;45.136;39.010;2023-03-25T04:18:28;8.51;72.74
65396;HTU21D;52004;45.136;39.010;2023-03-25T04:20:54;8.58;72.76
65396;HTU21D;52004;45.136;39.010;2023-03-25T04:23:20;8.65;72.77
65396;HTU21D;52004;45.136;39.010;2023-03-25T04:25:46;8.72;72.78
65396;HTU21D;52004;45.136;39.010;2023-03-25T04:28:18;8.80;72.84
65396;HTU21D;52004;45.136;39.010;2023-03-25T04:30:44;8.88;72.85
65396;HTU21D;52004;45.136;39.010;2023-03-25T04:33:10;8.97;72.83
65396;HTU21D;52004;45.136;39.010;2023-03-25T04:35:36;9.05;72.77
65396;HTU21D;52004;45.136;39.010;2023-03-25T04:38:03;9.10;72.75
65396;HTU21D;52004;45.136;39.010;2023-03-25T04:40:30;9.16;72.77
65396;HTU21D;52004;45.136;39.010;2023-03-25T04:42:56;9.20;72.81
65396;HTU21D;52004;45.136;39.010;2023-03-25T04:45:22;9.26;72.85
65396;HTU21D;52004;45.136;39.010;2023-03-25T04:47:49;9.33;72.88
65396;HTU21D;52004;45.136;39.010;2023-03-25T04:50:20;9.38;72.93
65396;HTU21D;52004;45.136;39.010;2023-03-25T04:52:47;9.46;72.95
65396;HTU21D;52004;45.136;39.010;2023-03-25T04:55:13;9.53;72.93
65396;HTU21D;52004;45.136;39.010;2023-03-25T04:57:49;9.59;72.90
65396;HTU21D;52004;45.136;39.010;2023-03-25T05:00:16;9.64;72.98
65396;HTU21D;52004;45.136;39.010;2023-03-25T05:02:43;9.70;72.97
65396;HTU21D;52004;45.136;39.010;2023-03-25T05:05:10;9.76;72.98
65396;HTU21D;52004;45.136;39.010;2023-03-25T05:07:46;9.84;73.00
65396;HTU21D;52004;45.136;39.010;2023-03-25T05:10:14;9.92;72.99
65396;HTU21D;52004;45.136;39.010;2023-03-25T05:12:40;9.98;73.01
65396;HTU21D;52004;45.136;39.010;2023-03-25T05:15:07;10.06;73.03
65396;HTU21D;52004;45.136;39.010;2023-03-25T05:17:33;10.15;73.05
65396;HTU21D;52004;45.136;39.010;2023-03-25T05:19:59;10.26;73.04
65396;HTU21D;52004;45.136;39.010;2023-03-25T05:22:24;10.36;72.96
65396;HTU21D;52004;45.136;39.010;2023-03-25T05:24:51;10.49;72.93
65396;HTU21D;52004;45.136;39.010;2023-03-25T05:27:18;10.58;72.89
65396;HTU21D;52004;45.136;39.010;2023-03-25T05:29:45;10.66;72.85
65396;HTU21D;52004;45.136;39.010;2023-03-25T05:32:11;10.73;72.83
65396;HTU21D;52004;45.136;39.010;2023-03-25T05:34:43;10.81;72.83
65396;HTU21D;52004;45.136;39.010;2023-03-25T05:37:12;10.87;72.79
65396;HTU21D;52004;45.136;39.010;2023-03-25T05:39:38;10.94;72.79
65396;HTU21D;52004;45.136;39.010;2023-03-25T05:42:04;10.99;72.77
65396;HTU21D;52004;45.136;39.010;2023-03-25T05:44:30;11.04;72.74
65396;HTU21D;52004;45.136;39.010;2023-03-25T05:46:56;11.10;72.68
65396;HTU21D;52004;45.136;39.010;2023-03-25T05:49:26;11.15;72.72
65396;HTU21D;52004;45.136;39.010;2023-03-25T05:51:51;11.19;72.77
65396;HTU21D;52004;45.136;39.010;2023-03-25T05:54:18;11.30;72.88
65396;HTU21D;52004;45.136;39.010;2023-03-25T05:56:44;11.37;72.89
65396;HTU21D;52004;45.136;39.010;2023-03-25T05:59:10;11.43;72.71
65396;HTU21D;52004;45.136;39.010;2023-03-25T06:01:36;11.42;72.58
65396;HTU21D;52004;45.136;39.010;2023-03-25T06:04:02;11.41;72.61
65396;HTU21D;52004;45.136;39.010;2023-03-25T06:06:28;11.43;72.71
65396;HTU21D;52004;45.136;39.010;2023-03-25T06:08:54;11.48;72.78
65396;HTU21D;52004;45.136;39.010;2023-03-25T06:11:20;11.57;72.87
65396;HTU21D;52004;45.136;39.010;2023-03-25T06:13:46;11.63;72.79
65396;HTU21D;52004;45.136;39.010;2023-03-25T06:16:19;11.70;72.77
65396;HTU21D;52004;45.136;39.010;2023-03-25T06:18:46;11.72;72.70
65396;HTU21D;52004;45.136;39.010;2023-03-25T06:21:16;11.76;72.74
65396;HTU21D;52004;45.136;39.010;2023-03-25T06:23:42;11.79;72.71
65396;HTU21D;52004;45.136;39.010;2023-03-25T06:26:07;11.83;72.70
65396;HTU21D;52004;45.136;39.010;2023-03-25T06:28:33;11.87;72.71
65396;HTU21D;52004;45.136;39.010;2023-03-25T06:30:59;11.93;72.78
65396;HTU21D;52004;45.136;39.010;2023-03-25T06:33:27;12.00;72.79
65396;HTU21D;52004;45.136;39.010;2023-03-25T06:35:53;12.03;72.70
65396;HTU21D;52004;45.136;39.010;2023-03-25T06:38:19;12.04;72.51
65396;HTU21D;52004;45.136;39.010;2023-03-25T06:41:15;12.03;72.47
65396;HTU21D;52004;45.136;39.010;2023-03-25T06:43:45;12.03;72.43
65396;HTU21D;52004;45.136;39.010;2023-03-25T06:46:29;12.04;72.45
65396;HTU21D;52004;45.136;39.010;2023-03-25T06:49:15;12.04;72.44
65396;HTU21D;52004;45.136;39.010;2023-03-25T06:51:41;12.06;72.45
65396;HTU21D;52004;45.136;39.010;2023-03-25T06:54:07;12.11;72.42
65396;HTU21D;52004;45.136;39.010;2023-03-25T06:56:33;12.12;72.40
65396;HTU21D;52004;45.136;39.010;2023-03-25T06:58:59;12.13;72.32
65396;HTU21D;52004;45.136;39.010;2023-03-25T07:01:25;12.14;72.32
65396;HTU21D;52004;45.136;39.010;2023-03-25T07:03:51;12.13;72.18
65396;HTU21D;52004;45.136;39.010;2023-03-25T07:06:17;12.13;72.23
65396;HTU21D;52004;45.136;39.010;2023-03-25T07:08:44;12.12;72.22
65396;HTU21D;52004;45.136;39.010;2023-03-25T07:11:11;12.12;72.18
65396;HTU21D;52004;45.136;39.010;2023-03-25T07:13:37;12.10;72.19
65396;HTU21D;52004;45.136;39.010;2023-03-25T07:16:02;12.11;72.21
65396;HTU21D;52004;45.136;39.010;2023-03-25T07:18:29;12.13;72.21
65396;HTU21D;52004;45.136;39.010;2023-03-25T07:20:54;12.14;72.17
65396;HTU21D;52004;45.136;39.010;2023-03-25T07:23:20;12.16;72.09
65396;HTU21D;52004;45.136;39.010;2023-03-25T07:25:46;12.15;72.09
65396;HTU21D;52004;45.136;39.010;2023-03-25T07:28:12;12.17;72.15
65396;HTU21D;52004;45.136;39.010;2023-03-25T07:30:44;12.18;72.05
65396;HTU21D;52004;45.136;39.010;2023-03-25T07:33:10;12.18;72.01
65396;HTU21D;52004;45.136;39.010;2023-03-25T07:35:36;12.16;72.06
65396;HTU21D;52004;45.136;39.010;2023-03-25T07:38:02;12.17;72.14
65396;HTU21D;52004;45.136;39.010;2023-03-25T07:40:28;12.22;72.16
65396;HTU21D;52004;45.136;39.010;2023-03-25T07:42:54;12.27;72.20
65396;HTU21D;52004;45.136;39.010;2023-03-25T07:45:21;12.31;72.19
65396;HTU21D;52004;45.136;39.010;2023-03-25T07:47:49;12.36;72.18
65396;HTU21D;52004;45.136;39.010;2023-03-25T07:50:19;12.43;72.19
65396;HTU21D;52004;45.136;39.010;2023-03-25T07:52:45;12.49;72.22
65396;HTU21D;52004;45.136;39.010;2023-03-25T07:55:11;12.55;72.14
65396;HTU21D;52004;45.136;39.010;2023-03-25T07:57:38;12.56;72.07
65396;HTU21D;52004;45.136;39.010;2023-03-25T08:00:05;12.57;72.12
65396;HTU21D;52004;45.136;39.010;2023-03-25T08:02:37;12.58;72.21
65396;HTU21D;52004;45.136;39.010;2023-03-25T08:05:04;12.63;72.35
65396;HTU21D;52004;45.136;39.010;2023-03-25T08:07:30;12.72;72.47
65396;HTU21D;52004;45.136;39.010;2023-03-25T08:09:56;12.80;72.45
65396;HTU21D;52004;45.136;39.010;2023-03-25T08:12:22;12.91;72.43
65396;HTU21D;52004;45.136;39.010;2023-03-25T08:14:48;13.01;72.40
65396;HTU21D;52004;45.136;39.010;2023-03-25T08:17:14;13.07;72.31
65396;HTU21D;52004;45.136;39.010;2023-03-25T08:19:40;13.12;72.39
65396;HTU21D;52004;45.136;39.010;2023-03-25T08:22:06;13.22;72.54
65396;HTU21D;52004;45.136;39.010;2023-03-25T08:24:32;13.35;72.48
65396;HTU21D;52004;45.136;39.010;2023-03-25T08:26:57;13.45;72.54
65396;HTU21D;52004;45.136;39.010;2023-03-25T08:29:27;13.58;72.60
65396;HTU21D;52004;45.136;39.010;2023-03-25T08:31:54;13.71;72.71
65396;HTU21D;52004;45.136;39.010;2023-03-25T08:34:20;13.85;72.64
65396;HTU21D;52004;45.136;39.010;2023-03-25T08:36:46;13.99;72.76
65396;HTU21D;52004;45.136;39.010;2023-03-25T08:39:12;14.13;72.76
65396;HTU21D;52004;45.136;39.010;2023-03-25T08:41:42;14.29;72.84
65396;HTU21D;52004;45.136;39.010;2023-03-25T08:44:08;14.43;72.77
65396;HTU21D;52004;45.136;39.010;2023-03-25T08:46:34;14.56;72.67
65396;HTU21D;52004;45.136;39.010;2023-03-25T08:49:01;14.71;72.96
65396;HTU21D;52004;45.136;39.010;2023-03-25T08:51:27;14.93;73.11
65396;HTU21D;52004;45.136;39.010;2023-03-25T08:53:53;15.15;73.19
65396;HTU21D;52004;45.136;39.010;2023-03-25T08:56:19;15.37;73.11
65396;HTU21D;52004;45.136;39.010;2023-03-25T08:58:45;15.58;72.87
65396;HTU21D;52004;45.136;39.010;2023-03-25T09:01:11;15.75;72.18
65396;HTU21D;52004;45.136;39.010;2023-03-25T09:03:36;15.89;72.03
65396;HTU21D;52004;45.136;39.010;2023-03-25T09:06:03;16.00;71.86
65396;HTU21D;52004;45.136;39.010;2023-03-25T09:08:30;16.10;71.71
65396;HTU21D;52004;45.136;39.010;2023-03-25T09:10:57;16.21;71.99
65396;HTU21D;52004;45.136;39.010;2023-03-25T09:13:23;16.37;71.98
65396;HTU21D;52004;45.136;39.010;2023-03-25T09:15:49;16.59;71.74
65396;HTU21D;52004;45.136;39.010;2023-03-25T09:18:14;16.75;71.55
65396;HTU21D;52004;45.136;39.010;2023-03-25T09:20:41;16.87;71.43
65396;HTU21D;52004;45.136;39.010;2023-03-25T09:23:07;17.05;71.51
65396;HTU21D;52004;45.136;39.010;2023-03-25T09:25:34;17.22;71.38
65396;HTU21D;52004;45.136;39.010;2023-03-25T09:28:00;17.36;71.05
65396;HTU21D;52004;45.136;39.010;2023-03-25T09:30:26;17.41;70.76
65396;HTU21D;52004;45.136;39.010;2023-03-25T09:32:51;17.50;70.92
65396;HTU21D;52004;45.136;39.010;2023-03-25T09:35:17;17.50;70.61
65396;HTU21D;52004;45.136;39.010;2023-03-25T09:37:43;17.51;70.84
65396;HTU21D;52004;45.136;39.010;2023-03-25T09:40:11;17.54;70.51
65396;HTU21D;52004;45.136;39.010;2023-03-25T09:45:33;17.33;69.88
65396;HTU21D;52004;45.136;39.010;2023-03-25T09:48:02;17.23;70.01
65396;HTU21D;52004;45.136;39.010;2023-03-25T09:50:28;17.16;69.99
65396;HTU21D;52004;45.136;39.010;2023-03-25T09:52:57;17.09;70.07
65396;HTU21D;52004;45.136;39.010;2023-03-25T09:55:25;17.07;70.16
65396;HTU21D;52004;45.136;39.010;2023-03-25T09:58:04;17.06;70.10
65396;HTU21D;52004;45.136;39.010;2023-03-25T10:00:38;17.00;69.79
65396;HTU21D;52004;45.136;39.010;2023-03-25T10:03:06;16.80;69.49
65396;HTU21D;52004;45.136;39.010;2023-03-25T10:13:27;16.82;70.06
65396;HTU21D;52004;45.136;39.010;2023-03-25T10:26:17;16.71;69.24
65396;HTU21D;52004;45.136;39.010;2023-03-25T10:28:53;16.61;69.05
65396;HTU21D;52004;45.136;39.010;2023-03-25T10:31:22;16.49;69.16
65396;HTU21D;52004;45.136;39.010;2023-03-25T10:33:53;16.46;69.31
65396;HTU21D;52004;45.136;39.010;2023-03-25T10:36:24;16.48;69.40
65396;HTU21D;52004;45.136;39.010;2023-03-25T10:39:16;16.47;69.26
65396;HTU21D;52004;45.136;39.010;2023-03-25T10:41:51;16.47;69.29
65396;HTU21D;52004;45.136;39.010;2023-03-25T10:44:32;16.45;69.16
65396;HTU21D;52004;45.136;39.010;2023-03-25T10:47:12;16.45;69.26
65396;HTU21D;52004;45.136;39.010;2023-03-25T10:49:50;16.45;69.29
65396;HTU21D;52004;45.136;39.010;2023-03-25T10:52:20;16.48;69.39
65396;HTU21D;52004;45.136;39.010;2023-03-25T10:54:48;16.52;69.42
65396;HTU21D;52004;45.136;39.010;2023-03-25T10:57:17;16.56;69.43
65396;HTU21D;52004;45.136;39.010;2023-03-25T11:02:23;16.63;69.18
65396;HTU21D;52004;45.136;39.010;2023-03-25T11:04:52;16.58;69.26
65396;HTU21D;52004;45.136;39.010;2023-03-25T11:07:35;16.59;69.38
65396;HTU21D;52004;45.136;39.010;2023-03-25T11:10:22;16.58;69.20
65396;HTU21D;52004;45.136;39.010;2023-03-25T11:12:49;16.58;69.52
65396;HTU21D;52004;45.136;39.010;2023-03-25T11:15:20;16.65;69.63
65396;HTU21D;52004;45.136;39.010;2023-03-25T11:17:47;16.74;69.67
65396;HTU21D;52004;45.136;39.010;2023-03-25T11:20:20;16.87;69.63
65396;HTU21D;52004;45.136;39.010;2023-03-25T11:22:50;16.98;69.51
65396;HTU21D;52004;45.136;39.010;2023-03-25T11:25:18;17.08;69.53
65396;HTU21D;52004;45.136;39.010;2023-03-25T11:27:50;17.17;69.49
65396;HTU21D;52004;45.136;39.010;2023-03-25T11:30:18;17.21;69.13
65396;HTU21D;52004;45.136;39.010;2023-03-25T11:32:44;17.25;69.30
65396;HTU21D;52004;45.136;39.010;2023-03-25T11:35:23;17.36;69.33
65396;HTU21D;52004;45.136;39.010;2023-03-25T11:37:54;17.41;69.16
65396;HTU21D;52004;45.136;39.010;2023-03-25T11:40:21;17.44;68.90
65396;HTU21D;52004;45.136;39.010;2023-03-25T11:42:54;17.39;68.67
65396;HTU21D;52004;45.136;39.010;2023-03-25T11:45:34;17.32;68.54
65396;HTU21D;52004;45.136;39.010;2023-03-25T11:48:01;17.25;68.54
65396;HTU21D;52004;45.136;39.010;2023-03-25T11:50:33;17.21;68.53
65396;HTU21D;52004;45.136;39.010;2023-03-25T11:53:00;17.21;68.68
65396;HTU21D;52004;45.136;39.010;2023-03-25T11:55:27;17.25;68.78
65396;HTU21D;52004;45.136;39.010;2023-03-25T11:57:55;17.33;68.66
65396;HTU21D;52004;45.136;39.010;2023-03-25T12:00:30;17.39;68.78
65396;HTU21D;52004;45.136;39.010;2023-03-25T12:05:36;17.60;68.77
65396;HTU21D;52004;45.136;39.010;2023-03-25T12:08:15;17.69;68.58
65396;HTU21D;52004;45.136;39.010;2023-03-25T12:10:44;17.79;68.62
65396;HTU21D;52004;45.136;39.010;2023-03-25T12:15:51;17.93;68.48
65396;HTU21D;52004;45.136;39.010;2023-03-25T12:26:08;18.13;67.82
65396;HTU21D;52004;45.136;39.010;2023-03-25T12:41:33;18.17;67.84
65396;HTU21D;52004;45.136;39.010;2023-03-25T12:54:12;18.37;67.35
65396;HTU21D;52004;45.136;39.010;2023-03-25T12:56:45;18.39;67.34
65396;HTU21D;52004;45.136;39.010;2023-03-25T12:59:21;18.44;67.38
65396;HTU21D;52004;45.136;39.010;2023-03-25T13:10:04;18.57;67.33
65396;HTU21D;52004;45.136;39.010;2023-03-25T13:12:28;18.67;67.37
65396;HTU21D;52004;45.136;39.010;2023-03-25T13:15:03;18.78;67.39
65396;HTU21D;52004;45.136;39.010;2023-03-25T13:17:45;18.87;67.37
65396;HTU21D;52004;45.136;39.010;2023-03-25T13:20:12;18.96;67.28
65396;HTU21D;52004;45.136;39.010;2023-03-25T13:22:51;18.99;67.07
65396;HTU21D;52004;45.136;39.010;2023-03-25T13:27:58;18.84;66.82
65396;HTU21D;52004;45.136;39.010;2023-03-25T13:30:29;18.77;66.81
65396;HTU21D;52004;45.136;39.010;2023-03-25T13:32:57;18.69;66.82
65396;HTU21D;52004;45.136;39.010;2023-03-25T13:35:44;18.62;66.75
65396;HTU21D;52004;45.136;39.010;2023-03-25T13:38:14;18.54;66.77
65396;HTU21D;52004;45.136;39.010;2023-03-25T13:40:47;18.49;66.88
65396;HTU21D;52004;45.136;39.010;2023-03-25T13:43:20;18.42;66.88
65396;HTU21D;52004;45.136;39.010;2023-03-25T13:45:58;18.44;67.04
65396;HTU21D;52004;45.136;39.010;2023-03-25T13:50:57;18.43;66.83
65396;HTU21D;52004;45.136;39.010;2023-03-25T13:53:26;18.40;66.75
65396;HTU21D;52004;45.136;39.010;2023-03-25T13:56:00;18.36;66.72
65396;HTU21D;52004;45.136;39.010;2023-03-25T13:58:45;18.29;66.62
65396;HTU21D;52004;45.136;39.010;2023-03-25T14:11:41;17.91;66.85
65396;HTU21D;52004;45.136;39.010;2023-03-25T14:14:09;17.89;66.95
65396;HTU21D;52004;45.136;39.010;2023-03-25T14:16:40;17.85;66.99
65396;HTU21D;52004;45.136;39.010;2023-03-25T14:19:10;17.88;67.01
65396;HTU21D;52004;45.136;39.010;2023-03-25T14:24:16;17.88;66.94
65396;HTU21D;52004;45.136;39.010;2023-03-25T14:26:45;17.87;66.88
65396;HTU21D;52004;45.136;39.010;2023-03-25T14:29:20;17.83;66.88
65396;HTU21D;52004;45.136;39.010;2023-03-25T14:32:04;17.79;66.94
65396;HTU21D;52004;45.136;39.010;2023-03-25T14:34:30;17.77;66.92
65396;HTU21D;52004;45.136;39.010;2023-03-25T14:44:33;17.62;67.14
65396;HTU21D;52004;45.136;39.010;2023-03-25T14:47:00;17.61;67.17
65396;HTU21D;52004;45.136;39.010;2023-03-25T14:49:45;17.54;67.20
65396;HTU21D;52004;45.136;39.010;2023-03-25T14:52:11;17.48;67.21
65396;HTU21D;52004;45.136;39.010;2023-03-25T14:54:40;17.45;67.26
65396;HTU21D;52004;45.136;39.010;2023-03-25T14:57:15;17.39;67.30
65396;HTU21D;52004;45.136;39.010;2023-03-25T14:59:43;17.35;67.34
65396;HTU21D;52004;45.136;39.010;2023-03-25T15:02:20;17.31;67.38
65396;HTU21D;52004;45.136;39.010;2023-03-25T15:05:30;17.26;67.46
65396;HTU21D;52004;45.136;39.010;2023-03-25T15:07:38;17.22;67.53
65396;HTU21D;52004;45.136;39.010;2023-03-25T15:10:05;0.00;67.57
65396;HTU21D;52004;45.136;39.010;2023-03-25T15:12:31;17.15;67.59
65396;HTU21D;52004;45.136;39.010;2023-03-25T15:15:06;17.09;67.59
65396;HTU21D;52004;45.136;39.010;2023-03-25T15:22:30;16.94;67.59
65396;HTU21D;52004;45.136;39.010;2023-03-25T15:24:57;16.89;67.57
65396;HTU21D;52004;45.136;39.010;2023-03-25T15:27:32;16.82;67.57
65396;HTU21D;52004;45.136;39.010;2023-03-25T15:32:53;16.66;67.51
65396;HTU21D;52004;45.136;39.010;2023-03-25T15:35:31;0.00;67.49
65396;HTU21D;52004;45.136;39.010;2023-03-25T15:51:26;16.12;67.33
65396;HTU21D;52004;45.136;39.010;2023-03-25T15:56:32;15.93;67.40
65396;HTU21D;52004;45.136;39.010;2023-03-25T16:01:44;15.77;67.48
65396;HTU21D;52004;45.136;39.010;2023-03-25T16:04:20;15.70;67.54
65396;HTU21D;52004;45.136;39.010;2023-03-25T16:06:49;15.62;67.55
65396;HTU21D;52004;45.136;39.010;2023-03-25T16:09:19;15.55;67.58
65396;HTU21D;52004;45.136;39.010;2023-03-25T16:11:45;15.48;67.62
65396;HTU21D;52004;45.136;39.010;2023-03-25T16:14:12;0.00;67.65
65396;HTU21D;52004;45.136;39.010;2023-03-25T16:16:45;15.30;67.66
65396;HTU21D;52004;45.136;39.010;2023-03-25T16:19:16;15.21;67.75
65396;HTU21D;52004;45.136;39.010;2023-03-25T16:21:46;15.12;67.83
65396;HTU21D;52004;45.136;39.010;2023-03-25T16:24:12;15.04;67.90
65396;HTU21D;52004;45.136;39.010;2023-03-25T16:26:42;15.00;67.94
65396;HTU21D;52004;45.136;39.010;2023-03-25T16:29:14;14.92;68.00
65396;HTU21D;52004;45.136;39.010;2023-03-25T16:31:59;14.86;68.03
65396;HTU21D;52004;45.136;39.010;2023-03-25T16:34:27;14.81;68.10
65396;HTU21D;52004;45.136;39.010;2023-03-25T16:36:53;14.78;68.13
65396;HTU21D;52004;45.136;39.010;2023-03-25T16:39:20;14.72;68.13
65396;HTU21D;52004;45.136;39.010;2023-03-25T16:41:50;14.69;68.13
65396;HTU21D;52004;45.136;39.010;2023-03-25T16:44:18;14.65;68.13
65396;HTU21D;52004;45.136;39.010;2023-03-25T16:46:45;0.00;68.13
65396;HTU21D;52004;45.136;39.010;2023-03-25T16:49:16;14.55;68.16
65396;HTU21D;52004;45.136;39.010;2023-03-25T16:51:44;14.50;68.22
65396;HTU21D;52004;45.136;39.010;2023-03-25T16:54:18;14.44;68.30
65396;HTU21D;52004;45.136;39.010;2023-03-25T16:56:45;14.42;68.36
65396;HTU21D;52004;45.136;39.010;2023-03-25T17:01:40;14.38;68.42
65396;HTU21D;52004;45.136;39.010;2023-03-25T17:06:33;14.34;68.52
65396;HTU21D;52004;45.136;39.010;2023-03-25T17:09:11;14.35;68.54
65396;HTU21D;52004;45.136;39.010;2023-03-25T17:11:39;14.35;68.54
65396;HTU21D;52004;45.136;39.010;2023-03-25T17:14:06;14.36;68.51
65396;HTU21D;52004;45.136;39.010;2023-03-25T17:16:33;14.37;68.49
65396;HTU21D;52004;45.136;39.010;2023-03-25T17:19:01;14.36;68.48
65396;HTU21D;52004;45.136;39.010;2023-03-25T17:21:28;14.34;68.50
65396;HTU21D;52004;45.136;39.010;2023-03-25T17:23:56;14.32;68.52
65396;HTU21D;52004;45.136;39.010;2023-03-25T17:26:23;14.29;68.53
65396;HTU21D;52004;45.136;39.010;2023-03-25T17:31:16;14.19;68.56
65396;HTU21D;52004;45.136;39.010;2023-03-25T17:33:46;14.15;68.62
65396;HTU21D;52004;45.136;39.010;2023-03-25T17:36:13;14.12;68.68
65396;HTU21D;52004;45.136;39.010;2023-03-25T17:38:41;14.11;68.70
65396;HTU21D;52004;45.136;39.010;2023-03-25T17:41:12;14.09;68.70
65396;HTU21D;52004;45.136;39.010;2023-03-25T17:43:43;14.07;68.71
65396;HTU21D;52004;45.136;39.010;2023-03-25T17:46:09;14.03;68.74
65396;HTU21D;52004;45.136;39.010;2023-03-25T17:48:36;14.00;68.78
65396;HTU21D;52004;45.136;39.010;2023-03-25T17:51:02;13.96;68.78
65396;HTU21D;52004;45.136;39.010;2023-03-25T17:53:28;13.94;68.79
65396;HTU21D;52004;45.136;39.010;2023-03-25T17:55:55;13.93;68.79
65396;HTU21D;52004;45.136;39.010;2023-03-25T17:58:23;13.90;68.81
65396;HTU21D;52004;45.136;39.010;2023-03-25T18:00:49;13.85;68.84
65396;HTU21D;52004;45.136;39.010;2023-03-25T18:03:17;13.82;68.86
65396;HTU21D;52004;45.136;39.010;2023-03-25T18:05:44;13.78;68.87
65396;HTU21D;52004;45.136;39.010;2023-03-25T18:08:11;13.74;68.90
65396;HTU21D;52004;45.136;39.010;2023-03-25T18:10:37;13.70;68.94
65396;HTU21D;52004;45.136;39.010;2023-03-25T18:13:03;13.67;68.96